Aktuální počasí v Česku a ve světě - METAR

Seznam meteostanic umístěných nejčasteji na letišti v ČR a ve světě

Vyhledat místa podle abecedy:
A B C D E F G H I J K L M N O P Q R S T U V W X Y Z

Filtrovat:

ID stanice:
a/nebo
Název místa (fulltext):
 
Místo (ID)Naposledy načteno 
Aalborg (EKYT) 19.06.2021 14:50 UTC Zobrazit METAR
EKYT 191450Z AUTO 25019KT 9999 FEW024/// SCT032/// 22/17 Q1010
Aarhus (EKAH) 19.06.2021 14:50 UTC Zobrazit METAR
EKAH 191450Z AUTO 25013KT 200V280 9999 FEW032/// 26/17 Q1012
Abu Dhabi (OMAA) 19.06.2021 15:00 UTC Zobrazit METAR
OMAA 191500Z 33010KT 7000 NSC 34/29 Q0997 NOSIG
Abuja (DNAA) 19.06.2021 15:00 UTC Zobrazit METAR
DNAA 191500Z 24005KT 9999 FEW014 32/21 Q1012 NOSIG
Accra (DGAA) 19.06.2021 15:00 UTC Zobrazit METAR
DGAA 191500Z 20012KT 170V230 9999 FEW029 31/23 Q1011 NOSIG
Addis Abeba (HAAB) 18.06.2021 20:00 UTC Zobrazit METAR
HAAB 182000Z 17003KT 9999 SCT025 18/07 Q1029
Agana (PGUM) 19.06.2021 14:54 UTC Zobrazit METAR
PGUM 191454Z 00000KT 10SM CLR 26/23 A2988 RMK AO2 SLP110 T02560233 58009
Ahe Island (NTHE) Zatím nenačteno  
Akureyri (BIAR) 19.06.2021 15:00 UTC Zobrazit METAR
BIAR 191500Z 35013KT 9999 FEW045 09/02 Q1013
Almaty (UAAA) Zatím nenačteno  
Amman (OJAM) 19.06.2021 15:00 UTC Zobrazit METAR
OJAM 191500Z 29010KT 5000 HZ NSC 27/12 Q1013 NOSIG
Amsterdam (EHAM) 19.06.2021 14:55 UTC Zobrazit METAR
EHAM 191455Z 29006KT 250V330 9999 FEW015 BKN017 17/14 Q1015 NOSIG
Antananarivo (FMMI) 19.06.2021 15:00 UTC Zobrazit METAR
FMMI 191500Z 13010KT 110V170 9999 FEW020 15/08 Q1027 NOSIG
Antwerp (EBAW) 19.06.2021 14:50 UTC Zobrazit METAR
EBAW 191450Z 01005KT 280V030 9999 FEW024 20/15 Q1014 NOSIG
Apia (NSFA) 19.06.2021 15:00 UTC Zobrazit METAR
NSFA 191500Z 15006KT 9999 FEW030 24/23 Q1011
Aruba I (TNCA) 19.06.2021 15:00 UTC Zobrazit METAR
TNCA 191500Z 10020KT 9999 SCT024 31/23 Q1015 NOSIG
Ascension I. (FHAW) 10.06.2021 07:50 UTC Zobrazit METAR
FHAW 100750Z 13012KT 9999 FEW018 25/21 Q1013 NOSIG RMK BLU BLU
Ashgabat (UTAA) 19.06.2021 15:00 UTC Zobrazit METAR
UTAA 191500Z 31006KT 9999 FEW049 SCT099 36/06 Q1010 R88/CLRD70 NOSIG
Asmara (HHAS) 03.02.2015 17:00 UTC Zobrazit METAR
HHAS 031700Z 27004KT CAVOK 15/06 Q1028 NOSIG
Astana (UACC) Zatím nenačteno  
Astrakhan (URWA) Zatím nenačteno  
Asuncion (SGAS) 19.06.2021 15:00 UTC Zobrazit METAR
SGAS 191500Z 25008KT 9999 OVC007 12/12 Q1024
Athens (LGAV) 19.06.2021 14:50 UTC Zobrazit METAR
LGAV 191450Z 05008KT 9999 SCT030 29/15 Q1011 NOSIG
Reklama

Reklama


Newslettter

Počasí na Váš email

Emaily jsou bez reklamy a bez spamu



Odhlásit newsletter



Kontaktujte nás

Kontaktujte Slunečno.cz

Kontaktujte provozovatele Slunecno.cz

Další české internetové stránky (nejen) o počasí najdete v katalogu TOPlist - weby o počasí nebo vyhledejte na internetu, co jste tu na Počasí Slunečno Slunečnu zatím nenašli:
Přidat mezzi oblíbené stránkyPřidat Slunečno.cz do oblíbených | Nastavit jako HOMEPAGENastavit Slunečno.cz jako HOMEPAGE

Posunout stránku nahoru Posunout stránku nahoru Posunout stránku nahoru
Reklama